Skip Navigation LinksHome page > Weather > Current weather Skip Navigation Links

Current Weather

Whiteside Co Arpt-Jos H Bittorf Fld, Sterling/Rockfalls, Ill.

For information only: do not use for flight planning or navigation.
Latest weather
Observation time Tuesday, October 19, 2021 4:56 PM CDT
Local time Tuesday, October 19, 2021 5:27 PM CDT
Flight conditions Visual Meteorological Conditions
Winds
Wind direction variable
Wind speed 5 mph
Visibility 10 mi.
Sky condition
Ceiling unlimited
Sky clear
Temperature 69°F
Dewpoint 46°F
Altimeter 30.03 in.Hg
Derived measurements
Relative humidity 44%
Density altitude 1331 ft.
Sea-level pressure 29.63 in.Hg
Remarks
Automated weather observing station with precipitation discriminator.
METAR KSQI 192156Z VRB04KT 10SM CLR 21/08 A3003 RMK AO2 SLP035 T02060078

Settings

Location code

InnerDrive.Weather 4.0.6770.0 Release CLR 4.0.30319.42000
Copyright ©2018 Inner Drive Technology. All rights reserved. Portions Copyright ©1986-2018 David Braverman.

Find weather

Site navigation


Skip Navigation Links

Place info

Page info

PayPal - The safer, easier way to pay online!

Return home.

Copyright ©2021 Inner Drive Technology. Purveyors of fine, hand-crafted computer software. Page printed 2021-10-19T22:27:57 UTC.